sensor_id;sensor_type;location;lat;lon;timestamp;temperature;humidity
17571;DHT22;8903;52.220;20.978;2023-03-05T00:01:18;-2.50;99.90
17571;DHT22;8903;52.220;20.978;2023-03-05T00:03:51;-2.50;99.90
17571;DHT22;8903;52.220;20.978;2023-03-05T00:06:22;-2.50;99.90
17571;DHT22;8903;52.220;20.978;2023-03-05T00:08:51;-2.50;99.90
17571;DHT22;8903;52.220;20.978;2023-03-05T00:11:19;-2.50;99.90
17571;DHT22;8903;52.220;20.978;2023-03-05T00:13:47;-2.50;99.90
17571;DHT22;8903;52.220;20.978;2023-03-05T00:16:15;-2.60;99.90
17571;DHT22;8903;52.220;20.978;2023-03-05T00:18:43;-2.50;99.90
17571;DHT22;8903;52.220;20.978;2023-03-05T00:21:19;-2.50;99.90
17571;DHT22;8903;52.220;20.978;2023-03-05T00:23:46;-2.50;99.90
17571;DHT22;8903;52.220;20.978;2023-03-05T00:26:15;-2.50;99.90
17571;DHT22;8903;52.220;20.978;2023-03-05T00:28:43;-2.50;99.90
17571;DHT22;8903;52.220;20.978;2023-03-05T00:31:12;-2.50;99.90
17571;DHT22;8903;52.220;20.978;2023-03-05T00:33:40;-2.60;99.90
17571;DHT22;8903;52.220;20.978;2023-03-05T00:36:08;-2.60;99.90
17571;DHT22;8903;52.220;20.978;2023-03-05T00:38:36;-2.60;99.90
17571;DHT22;8903;52.220;20.978;2023-03-05T00:41:03;-2.70;99.90
17571;DHT22;8903;52.220;20.978;2023-03-05T00:43:30;-2.70;99.90
17571;DHT22;8903;52.220;20.978;2023-03-05T00:45:57;-2.70;99.90
17571;DHT22;8903;52.220;20.978;2023-03-05T00:48:24;-2.70;99.90
17571;DHT22;8903;52.220;20.978;2023-03-05T00:50:52;-2.70;99.90
17571;DHT22;8903;52.220;20.978;2023-03-05T00:53:19;-2.80;99.90
17571;DHT22;8903;52.220;20.978;2023-03-05T00:55:46;-2.80;99.90
17571;DHT22;8903;52.220;20.978;2023-03-05T00:58:14;-2.80;99.90
17571;DHT22;8903;52.220;20.978;2023-03-05T01:00:41;-2.80;99.90
17571;DHT22;8903;52.220;20.978;2023-03-05T01:03:08;-2.70;99.90
17571;DHT22;8903;52.220;20.978;2023-03-05T01:05:35;-2.70;99.90
17571;DHT22;8903;52.220;20.978;2023-03-05T01:08:04;-2.70;99.90
17571;DHT22;8903;52.220;20.978;2023-03-05T01:10:31;-2.70;99.90
17571;DHT22;8903;52.220;20.978;2023-03-05T01:13:01;-2.70;99.90
17571;DHT22;8903;52.220;20.978;2023-03-05T01:15:28;-2.70;99.90
17571;DHT22;8903;52.220;20.978;2023-03-05T01:17:56;-2.70;99.90
17571;DHT22;8903;52.220;20.978;2023-03-05T01:20:23;-2.70;99.90
17571;DHT22;8903;52.220;20.978;2023-03-05T01:22:50;-2.70;99.90
17571;DHT22;8903;52.220;20.978;2023-03-05T01:25:19;-2.70;99.90
17571;DHT22;8903;52.220;20.978;2023-03-05T01:27:46;-2.70;99.90
17571;DHT22;8903;52.220;20.978;2023-03-05T01:30:14;-2.70;99.90
17571;DHT22;8903;52.220;20.978;2023-03-05T01:32:41;-2.70;99.90
17571;DHT22;8903;52.220;20.978;2023-03-05T01:35:15;-2.80;99.90
17571;DHT22;8903;52.220;20.978;2023-03-05T01:37:42;-2.80;99.90
17571;DHT22;8903;52.220;20.978;2023-03-05T01:40:11;-2.80;99.90
17571;DHT22;8903;52.220;20.978;2023-03-05T01:42:44;-2.80;99.90
17571;DHT22;8903;52.220;20.978;2023-03-05T01:45:13;-2.80;99.90
17571;DHT22;8903;52.220;20.978;2023-03-05T01:47:41;-2.70;99.90
17571;DHT22;8903;52.220;20.978;2023-03-05T01:50:09;-2.80;99.90
17571;DHT22;8903;52.220;20.978;2023-03-05T01:52:39;-2.80;99.90
17571;DHT22;8903;52.220;20.978;2023-03-05T01:55:09;-2.80;99.90
17571;DHT22;8903;52.220;20.978;2023-03-05T01:57:41;-2.80;99.90
17571;DHT22;8903;52.220;20.978;2023-03-05T02:00:12;-2.80;99.90
17571;DHT22;8903;52.220;20.978;2023-03-05T02:02:41;-2.90;99.90
17571;DHT22;8903;52.220;20.978;2023-03-05T02:05:11;-2.90;99.90
17571;DHT22;8903;52.220;20.978;2023-03-05T02:07:39;-2.90;99.90
17571;DHT22;8903;52.220;20.978;2023-03-05T02:10:18;-2.90;99.90
17571;DHT22;8903;52.220;20.978;2023-03-05T02:12:48;-2.90;99.90
17571;DHT22;8903;52.220;20.978;2023-03-05T02:15:16;-2.90;99.90
17571;DHT22;8903;52.220;20.978;2023-03-05T02:17:44;-2.90;99.90
17571;DHT22;8903;52.220;20.978;2023-03-05T02:20:13;-2.90;99.90
17571;DHT22;8903;52.220;20.978;2023-03-05T02:22:42;-2.90;99.90
17571;DHT22;8903;52.220;20.978;2023-03-05T02:25:17;-2.90;99.90
17571;DHT22;8903;52.220;20.978;2023-03-05T02:27:51;-3.00;99.90
17571;DHT22;8903;52.220;20.978;2023-03-05T02:30:23;-3.00;99.90
17571;DHT22;8903;52.220;20.978;2023-03-05T02:32:51;-3.00;99.90
17571;DHT22;8903;52.220;20.978;2023-03-05T02:35:19;-3.00;99.90
17571;DHT22;8903;52.220;20.978;2023-03-05T02:37:48;-3.00;99.90
17571;DHT22;8903;52.220;20.978;2023-03-05T02:40:16;-3.00;99.90
17571;DHT22;8903;52.220;20.978;2023-03-05T02:42:43;-3.10;99.90
17571;DHT22;8903;52.220;20.978;2023-03-05T02:45:12;-3.10;99.90
17571;DHT22;8903;52.220;20.978;2023-03-05T02:47:40;-3.10;99.90
17571;DHT22;8903;52.220;20.978;2023-03-05T02:50:09;-3.10;99.90
17571;DHT22;8903;52.220;20.978;2023-03-05T02:52:37;-3.10;99.90
17571;DHT22;8903;52.220;20.978;2023-03-05T02:55:10;-3.10;99.90
17571;DHT22;8903;52.220;20.978;2023-03-05T02:57:39;-3.10;99.90
17571;DHT22;8903;52.220;20.978;2023-03-05T03:00:07;-3.10;99.90
17571;DHT22;8903;52.220;20.978;2023-03-05T03:02:34;-3.10;99.90
17571;DHT22;8903;52.220;20.978;2023-03-05T03:05:02;-3.10;99.90
17571;DHT22;8903;52.220;20.978;2023-03-05T03:07:29;-3.10;99.90
17571;DHT22;8903;52.220;20.978;2023-03-05T03:09:56;-3.10;99.90
17571;DHT22;8903;52.220;20.978;2023-03-05T03:12:24;-3.10;99.90
17571;DHT22;8903;52.220;20.978;2023-03-05T03:14:51;-3.10;99.90
17571;DHT22;8903;52.220;20.978;2023-03-05T03:17:18;-3.10;99.90
17571;DHT22;8903;52.220;20.978;2023-03-05T03:19:46;-3.00;99.90
17571;DHT22;8903;52.220;20.978;2023-03-05T03:22:15;-3.00;99.90
17571;DHT22;8903;52.220;20.978;2023-03-05T03:24:42;-3.00;99.90
17571;DHT22;8903;52.220;20.978;2023-03-05T03:27:10;-3.00;99.90
17571;DHT22;8903;52.220;20.978;2023-03-05T03:29:38;-3.00;99.90
17571;DHT22;8903;52.220;20.978;2023-03-05T03:32:05;-3.00;99.90
17571;DHT22;8903;52.220;20.978;2023-03-05T03:34:33;-3.00;99.90
17571;DHT22;8903;52.220;20.978;2023-03-05T03:37:00;-3.00;99.90
17571;DHT22;8903;52.220;20.978;2023-03-05T03:39:27;-3.00;99.90
17571;DHT22;8903;52.220;20.978;2023-03-05T03:41:54;-3.00;99.90
17571;DHT22;8903;52.220;20.978;2023-03-05T03:44:22;-3.00;99.90
17571;DHT22;8903;52.220;20.978;2023-03-05T03:46:51;-3.00;99.90
17571;DHT22;8903;52.220;20.978;2023-03-05T03:49:21;-3.00;99.90
17571;DHT22;8903;52.220;20.978;2023-03-05T03:51:49;-3.00;99.90
17571;DHT22;8903;52.220;20.978;2023-03-05T03:54:17;-3.00;99.90
17571;DHT22;8903;52.220;20.978;2023-03-05T03:56:44;-3.00;99.90
17571;DHT22;8903;52.220;20.978;2023-03-05T03:59:12;-3.00;99.90
17571;DHT22;8903;52.220;20.978;2023-03-05T04:01:39;-3.00;99.90
17571;DHT22;8903;52.220;20.978;2023-03-05T04:04:09;-3.00;99.90
17571;DHT22;8903;52.220;20.978;2023-03-05T04:06:37;-3.00;99.90
17571;DHT22;8903;52.220;20.978;2023-03-05T04:09:06;-3.00;99.90
17571;DHT22;8903;52.220;20.978;2023-03-05T04:11:33;-3.00;99.90
17571;DHT22;8903;52.220;20.978;2023-03-05T04:14:01;-3.00;99.90
17571;DHT22;8903;52.220;20.978;2023-03-05T04:16:28;-3.00;99.90
17571;DHT22;8903;52.220;20.978;2023-03-05T04:18:55;-3.00;99.90
17571;DHT22;8903;52.220;20.978;2023-03-05T04:21:24;-3.00;99.90
17571;DHT22;8903;52.220;20.978;2023-03-05T04:23:51;-3.00;99.90
17571;DHT22;8903;52.220;20.978;2023-03-05T04:26:18;-3.00;99.90
17571;DHT22;8903;52.220;20.978;2023-03-05T04:28:46;-3.00;99.90
17571;DHT22;8903;52.220;20.978;2023-03-05T04:31:14;-3.00;99.90
17571;DHT22;8903;52.220;20.978;2023-03-05T04:33:41;-2.90;99.90
17571;DHT22;8903;52.220;20.978;2023-03-05T04:36:09;-2.90;99.90
17571;DHT22;8903;52.220;20.978;2023-03-05T04:38:37;-2.90;99.90
17571;DHT22;8903;52.220;20.978;2023-03-05T04:41:04;-2.90;99.90
17571;DHT22;8903;52.220;20.978;2023-03-05T04:43:31;-2.90;99.90
17571;DHT22;8903;52.220;20.978;2023-03-05T04:45:58;-2.80;99.90
17571;DHT22;8903;52.220;20.978;2023-03-05T04:48:25;-2.80;99.90
17571;DHT22;8903;52.220;20.978;2023-03-05T04:50:52;-2.80;99.90
17571;DHT22;8903;52.220;20.978;2023-03-05T04:53:19;-2.80;99.90
17571;DHT22;8903;52.220;20.978;2023-03-05T04:55:51;-2.70;99.90
17571;DHT22;8903;52.220;20.978;2023-03-05T04:58:18;-2.70;99.90
17571;DHT22;8903;52.220;20.978;2023-03-05T05:00:45;-2.70;99.90
17571;DHT22;8903;52.220;20.978;2023-03-05T05:03:12;-2.70;99.90
17571;DHT22;8903;52.220;20.978;2023-03-05T05:05:39;-2.70;99.90
17571;DHT22;8903;52.220;20.978;2023-03-05T05:08:06;-2.70;99.90
17571;DHT22;8903;52.220;20.978;2023-03-05T05:10:33;-2.70;99.90
17571;DHT22;8903;52.220;20.978;2023-03-05T05:13:05;-2.70;99.90
17571;DHT22;8903;52.220;20.978;2023-03-05T05:15:32;-2.70;99.90
17571;DHT22;8903;52.220;20.978;2023-03-05T05:17:59;-2.70;99.90
17571;DHT22;8903;52.220;20.978;2023-03-05T05:20:26;-2.70;99.90
17571;DHT22;8903;52.220;20.978;2023-03-05T05:22:54;-2.70;99.90
17571;DHT22;8903;52.220;20.978;2023-03-05T05:25:21;-2.70;99.90
17571;DHT22;8903;52.220;20.978;2023-03-05T05:27:48;-2.70;99.90
17571;DHT22;8903;52.220;20.978;2023-03-05T05:30:16;-2.70;99.90
17571;DHT22;8903;52.220;20.978;2023-03-05T05:32:43;-2.70;99.90
17571;DHT22;8903;52.220;20.978;2023-03-05T05:35:10;-2.70;99.90
17571;DHT22;8903;52.220;20.978;2023-03-05T05:37:37;-2.70;99.90
17571;DHT22;8903;52.220;20.978;2023-03-05T05:40:05;-2.70;99.90
17571;DHT22;8903;52.220;20.978;2023-03-05T05:42:33;-2.70;99.90
17571;DHT22;8903;52.220;20.978;2023-03-05T05:45:00;-2.70;99.90
17571;DHT22;8903;52.220;20.978;2023-03-05T05:47:29;-2.70;99.90
17571;DHT22;8903;52.220;20.978;2023-03-05T05:49:56;-2.70;99.90
17571;DHT22;8903;52.220;20.978;2023-03-05T05:52:23;-2.70;99.90
17571;DHT22;8903;52.220;20.978;2023-03-05T05:54:50;-2.60;99.90
17571;DHT22;8903;52.220;20.978;2023-03-05T05:57:17;-2.60;99.90
17571;DHT22;8903;52.220;20.978;2023-03-05T05:59:44;-2.50;99.90
17571;DHT22;8903;52.220;20.978;2023-03-05T06:02:11;-2.50;99.90
17571;DHT22;8903;52.220;20.978;2023-03-05T06:04:40;-2.40;99.90
17571;DHT22;8903;52.220;20.978;2023-03-05T06:07:07;-2.40;99.90
17571;DHT22;8903;52.220;20.978;2023-03-05T06:09:34;-2.30;99.90
17571;DHT22;8903;52.220;20.978;2023-03-05T06:12:02;-2.30;99.90
17571;DHT22;8903;52.220;20.978;2023-03-05T06:14:29;-2.20;99.90
17571;DHT22;8903;52.220;20.978;2023-03-05T06:16:56;-2.20;99.90
17571;DHT22;8903;52.220;20.978;2023-03-05T06:19:23;-2.10;99.90
17571;DHT22;8903;52.220;20.978;2023-03-05T06:21:51;-2.10;99.90
17571;DHT22;8903;52.220;20.978;2023-03-05T06:24:18;-2.00;99.90
17571;DHT22;8903;52.220;20.978;2023-03-05T06:26:47;-2.00;99.90
17571;DHT22;8903;52.220;20.978;2023-03-05T06:29:14;-1.90;99.90
17571;DHT22;8903;52.220;20.978;2023-03-05T06:31:41;-1.80;99.90
17571;DHT22;8903;52.220;20.978;2023-03-05T06:34:09;-1.70;99.90
17571;DHT22;8903;52.220;20.978;2023-03-05T06:36:37;-1.60;99.90
17571;DHT22;8903;52.220;20.978;2023-03-05T06:39:06;-1.50;99.90
17571;DHT22;8903;52.220;20.978;2023-03-05T06:41:33;-1.40;99.90
17571;DHT22;8903;52.220;20.978;2023-03-05T06:44:01;-1.30;99.90
17571;DHT22;8903;52.220;20.978;2023-03-05T06:46:31;-1.30;99.90
17571;DHT22;8903;52.220;20.978;2023-03-05T06:48:59;-1.20;99.90
17571;DHT22;8903;52.220;20.978;2023-03-05T06:51:28;-1.20;99.90
17571;DHT22;8903;52.220;20.978;2023-03-05T06:53:59;-1.10;99.90
17571;DHT22;8903;52.220;20.978;2023-03-05T06:56:28;-1.10;99.90
17571;DHT22;8903;52.220;20.978;2023-03-05T06:58:55;-1.00;99.90
17571;DHT22;8903;52.220;20.978;2023-03-05T07:01:22;-1.00;99.90
17571;DHT22;8903;52.220;20.978;2023-03-05T07:03:50;-0.90;99.90
17571;DHT22;8903;52.220;20.978;2023-03-05T07:06:18;-0.80;99.90
17571;DHT22;8903;52.220;20.978;2023-03-05T07:08:45;-0.60;99.90
17571;DHT22;8903;52.220;20.978;2023-03-05T07:11:14;-0.50;99.90
17571;DHT22;8903;52.220;20.978;2023-03-05T07:13:43;-0.40;99.90
17571;DHT22;8903;52.220;20.978;2023-03-05T07:16:14;-0.40;99.90
17571;DHT22;8903;52.220;20.978;2023-03-05T07:18:42;-0.30;99.90
17571;DHT22;8903;52.220;20.978;2023-03-05T07:21:12;-0.20;99.90
17571;DHT22;8903;52.220;20.978;2023-03-05T07:23:40;-0.20;99.90
17571;DHT22;8903;52.220;20.978;2023-03-05T07:26:07;-0.10;99.90
17571;DHT22;8903;52.220;20.978;2023-03-05T07:28:34;-0.10;99.90
17571;DHT22;8903;52.220;20.978;2023-03-05T07:31:04;0.00;99.90
17571;DHT22;8903;52.220;20.978;2023-03-05T07:33:32;0.00;99.90
17571;DHT22;8903;52.220;20.978;2023-03-05T07:36:01;0.00;99.90
17571;DHT22;8903;52.220;20.978;2023-03-05T07:38:29;0.10;99.90
17571;DHT22;8903;52.220;20.978;2023-03-05T07:41:00;0.10;99.90
17571;DHT22;8903;52.220;20.978;2023-03-05T07:43:27;0.20;99.90
17571;DHT22;8903;52.220;20.978;2023-03-05T07:45:54;0.20;99.90
17571;DHT22;8903;52.220;20.978;2023-03-05T07:48:23;0.20;99.90
17571;DHT22;8903;52.220;20.978;2023-03-05T07:50:59;0.30;99.90
17571;DHT22;8903;52.220;20.978;2023-03-05T07:53:26;0.40;99.90
17571;DHT22;8903;52.220;20.978;2023-03-05T07:55:53;0.40;99.90
17571;DHT22;8903;52.220;20.978;2023-03-05T07:58:20;0.40;99.90
17571;DHT22;8903;52.220;20.978;2023-03-05T08:00:48;0.30;99.90
17571;DHT22;8903;52.220;20.978;2023-03-05T08:03:15;0.30;99.90
17571;DHT22;8903;52.220;20.978;2023-03-05T08:05:43;0.30;99.90
17571;DHT22;8903;52.220;20.978;2023-03-05T08:08:10;0.30;99.90
17571;DHT22;8903;52.220;20.978;2023-03-05T08:10:38;0.20;99.90
17571;DHT22;8903;52.220;20.978;2023-03-05T08:13:05;0.20;99.90
17571;DHT22;8903;52.220;20.978;2023-03-05T08:15:32;0.30;99.90
17571;DHT22;8903;52.220;20.978;2023-03-05T08:17:59;0.30;99.90
17571;DHT22;8903;52.220;20.978;2023-03-05T08:20:26;0.30;99.90
17571;DHT22;8903;52.220;20.978;2023-03-05T08:22:55;0.30;99.90
17571;DHT22;8903;52.220;20.978;2023-03-05T08:25:22;0.30;99.90
17571;DHT22;8903;52.220;20.978;2023-03-05T08:27:49;0.30;99.90
17571;DHT22;8903;52.220;20.978;2023-03-05T08:30:18;0.40;99.90
17571;DHT22;8903;52.220;20.978;2023-03-05T08:32:48;0.40;99.90
17571;DHT22;8903;52.220;20.978;2023-03-05T08:35:17;0.40;99.90
17571;DHT22;8903;52.220;20.978;2023-03-05T08:37:45;0.40;99.90
17571;DHT22;8903;52.220;20.978;2023-03-05T08:40:13;0.40;99.90
17571;DHT22;8903;52.220;20.978;2023-03-05T08:42:42;0.40;99.90
17571;DHT22;8903;52.220;20.978;2023-03-05T08:45:11;0.40;99.90
17571;DHT22;8903;52.220;20.978;2023-03-05T08:47:38;0.40;99.90
17571;DHT22;8903;52.220;20.978;2023-03-05T08:50:06;0.50;99.90
17571;DHT22;8903;52.220;20.978;2023-03-05T08:52:33;0.50;99.90
17571;DHT22;8903;52.220;20.978;2023-03-05T08:55:00;0.50;99.90
17571;DHT22;8903;52.220;20.978;2023-03-05T08:57:28;0.50;99.90
17571;DHT22;8903;52.220;20.978;2023-03-05T08:59:56;0.50;99.90
17571;DHT22;8903;52.220;20.978;2023-03-05T09:02:23;0.50;99.90
17571;DHT22;8903;52.220;20.978;2023-03-05T09:04:50;0.60;99.90
17571;DHT22;8903;52.220;20.978;2023-03-05T09:07:17;0.60;99.90
17571;DHT22;8903;52.220;20.978;2023-03-05T09:09:44;0.60;99.90
17571;DHT22;8903;52.220;20.978;2023-03-05T09:12:11;0.60;99.90
17571;DHT22;8903;52.220;20.978;2023-03-05T09:14:40;0.50;99.90
17571;DHT22;8903;52.220;20.978;2023-03-05T09:17:07;0.60;99.90
17571;DHT22;8903;52.220;20.978;2023-03-05T09:19:34;0.60;99.90
17571;DHT22;8903;52.220;20.978;2023-03-05T09:22:02;0.60;99.90
17571;DHT22;8903;52.220;20.978;2023-03-05T09:24:29;0.70;99.90
17571;DHT22;8903;52.220;20.978;2023-03-05T09:26:57;0.70;99.90
17571;DHT22;8903;52.220;20.978;2023-03-05T09:29:24;0.70;99.90
17571;DHT22;8903;52.220;20.978;2023-03-05T09:31:53;0.70;99.90
17571;DHT22;8903;52.220;20.978;2023-03-05T09:34:21;0.70;99.90
17571;DHT22;8903;52.220;20.978;2023-03-05T09:36:48;0.80;99.90
17571;DHT22;8903;52.220;20.978;2023-03-05T09:39:15;0.80;99.90
17571;DHT22;8903;52.220;20.978;2023-03-05T09:42:11;0.80;99.90
17571;DHT22;8903;52.220;20.978;2023-03-05T09:44:46;0.70;99.90
17571;DHT22;8903;52.220;20.978;2023-03-05T09:47:30;0.70;99.90
17571;DHT22;8903;52.220;20.978;2023-03-05T09:50:10;0.70;99.90
17571;DHT22;8903;52.220;20.978;2023-03-05T09:52:41;0.80;99.90
17571;DHT22;8903;52.220;20.978;2023-03-05T09:55:13;0.90;99.90
17571;DHT22;8903;52.220;20.978;2023-03-05T09:57:45;0.90;99.90
17571;DHT22;8903;52.220;20.978;2023-03-05T10:00:25;1.00;99.90
17571;DHT22;8903;52.220;20.978;2023-03-05T10:03:00;0.90;99.90
17571;DHT22;8903;52.220;20.978;2023-03-05T10:05:52;0.90;99.90
17571;DHT22;8903;52.220;20.978;2023-03-05T10:08:25;0.90;99.90
17571;DHT22;8903;52.220;20.978;2023-03-05T10:10:57;0.90;99.90
17571;DHT22;8903;52.220;20.978;2023-03-05T10:13:29;1.00;99.90
17571;DHT22;8903;52.220;20.978;2023-03-05T10:16:02;1.00;99.90
17571;DHT22;8903;52.220;20.978;2023-03-05T10:18:34;0.90;99.90
17571;DHT22;8903;52.220;20.978;2023-03-05T10:21:04;0.90;99.90
17571;DHT22;8903;52.220;20.978;2023-03-05T10:23:56;0.80;99.90
17571;DHT22;8903;52.220;20.978;2023-03-05T10:26:36;0.80;99.90
17571;DHT22;8903;52.220;20.978;2023-03-05T10:29:25;0.80;99.90
17571;DHT22;8903;52.220;20.978;2023-03-05T10:32:05;0.80;99.90
17571;DHT22;8903;52.220;20.978;2023-03-05T10:35:04;0.90;99.90
17571;DHT22;8903;52.220;20.978;2023-03-05T10:40:25;0.80;99.90
17571;DHT22;8903;52.220;20.978;2023-03-05T10:43:03;0.60;99.90
17571;DHT22;8903;52.220;20.978;2023-03-05T10:45:35;0.50;99.90
17571;DHT22;8903;52.220;20.978;2023-03-05T10:48:10;0.60;99.90
17571;DHT22;8903;52.220;20.978;2023-03-05T10:50:43;0.70;99.90
17571;DHT22;8903;52.220;20.978;2023-03-05T10:53:16;0.70;99.90
17571;DHT22;8903;52.220;20.978;2023-03-05T10:55:45;0.50;99.90
17571;DHT22;8903;52.220;20.978;2023-03-05T10:58:13;0.50;99.90
17571;DHT22;8903;52.220;20.978;2023-03-05T11:00:57;0.50;99.90
17571;DHT22;8903;52.220;20.978;2023-03-05T11:03:24;0.40;99.90
17571;DHT22;8903;52.220;20.978;2023-03-05T11:05:59;0.30;99.90
17571;DHT22;8903;52.220;20.978;2023-03-05T11:08:32;0.30;99.90
17571;DHT22;8903;52.220;20.978;2023-03-05T11:11:18;0.30;99.90
17571;DHT22;8903;52.220;20.978;2023-03-05T11:13:55;0.30;99.90
17571;DHT22;8903;52.220;20.978;2023-03-05T11:16:24;0.10;99.90
17571;DHT22;8903;52.220;20.978;2023-03-05T11:19:16;-0.10;99.90
17571;DHT22;8903;52.220;20.978;2023-03-05T11:21:46;-0.10;99.90
17571;DHT22;8903;52.220;20.978;2023-03-05T11:24:15;-0.10;99.90
17571;DHT22;8903;52.220;20.978;2023-03-05T11:26:48;-0.20;99.90
17571;DHT22;8903;52.220;20.978;2023-03-05T11:29:19;-0.20;99.90
17571;DHT22;8903;52.220;20.978;2023-03-05T11:31:46;-0.30;99.90
17571;DHT22;8903;52.220;20.978;2023-03-05T11:34:29;-0.30;99.90
17571;DHT22;8903;52.220;20.978;2023-03-05T11:37:04;-0.30;99.90
17571;DHT22;8903;52.220;20.978;2023-03-05T11:39:32;-0.30;99.90
17571;DHT22;8903;52.220;20.978;2023-03-05T11:42:05;-0.30;99.90
17571;DHT22;8903;52.220;20.978;2023-03-05T11:44:37;-0.40;99.90
17571;DHT22;8903;52.220;20.978;2023-03-05T11:47:19;-0.30;99.90
17571;DHT22;8903;52.220;20.978;2023-03-05T11:49:51;-0.30;99.90
17571;DHT22;8903;52.220;20.978;2023-03-05T11:52:25;-0.20;99.90
17571;DHT22;8903;52.220;20.978;2023-03-05T11:54:58;0.00;99.90
17571;DHT22;8903;52.220;20.978;2023-03-05T11:57:28;0.00;99.90
17571;DHT22;8903;52.220;20.978;2023-03-05T11:59:59;0.00;99.90
17571;DHT22;8903;52.220;20.978;2023-03-05T12:02:30;0.00;99.90
17571;DHT22;8903;52.220;20.978;2023-03-05T12:04:57;0.00;99.90
17571;DHT22;8903;52.220;20.978;2023-03-05T12:07:33;0.00;99.90
17571;DHT22;8903;52.220;20.978;2023-03-05T12:10:01;-0.10;99.90
17571;DHT22;8903;52.220;20.978;2023-03-05T12:12:38;-0.10;99.90
17571;DHT22;8903;52.220;20.978;2023-03-05T12:15:28;-0.20;99.90
17571;DHT22;8903;52.220;20.978;2023-03-05T12:18:06;-0.40;99.90
17571;DHT22;8903;52.220;20.978;2023-03-05T12:20:42;-0.60;99.90
17571;DHT22;8903;52.220;20.978;2023-03-05T12:23:16;-0.70;99.90
17571;DHT22;8903;52.220;20.978;2023-03-05T12:25:47;-0.70;99.90
17571;DHT22;8903;52.220;20.978;2023-03-05T12:28:16;-0.70;99.90
17571;DHT22;8903;52.220;20.978;2023-03-05T12:30:56;-0.70;99.90
17571;DHT22;8903;52.220;20.978;2023-03-05T12:33:35;-0.60;99.90
17571;DHT22;8903;52.220;20.978;2023-03-05T12:36:35;-0.60;99.90
17571;DHT22;8903;52.220;20.978;2023-03-05T12:45:28;-0.80;99.90
17571;DHT22;8903;52.220;20.978;2023-03-05T12:51:29;-0.70;99.90
17571;DHT22;8903;52.220;20.978;2023-03-05T12:53:57;-0.70;99.90
17571;DHT22;8903;52.220;20.978;2023-03-05T12:56:28;-0.60;99.90
17571;DHT22;8903;52.220;20.978;2023-03-05T12:58:59;-0.60;99.90
17571;DHT22;8903;52.220;20.978;2023-03-05T13:01:41;-0.70;99.90
17571;DHT22;8903;52.220;20.978;2023-03-05T13:04:15;-0.70;99.90
17571;DHT22;8903;52.220;20.978;2023-03-05T13:06:44;-0.60;99.90
17571;DHT22;8903;52.220;20.978;2023-03-05T13:09:16;-0.70;99.90
17571;DHT22;8903;52.220;20.978;2023-03-05T13:11:45;-0.60;99.90
17571;DHT22;8903;52.220;20.978;2023-03-05T13:14:31;-0.60;99.90
17571;DHT22;8903;52.220;20.978;2023-03-05T13:17:00;-0.60;99.90
17571;DHT22;8903;52.220;20.978;2023-03-05T13:19:28;-0.50;99.90
17571;DHT22;8903;52.220;20.978;2023-03-05T13:22:02;-0.50;99.90
17571;DHT22;8903;52.220;20.978;2023-03-05T13:24:30;-0.50;99.90
17571;DHT22;8903;52.220;20.978;2023-03-05T13:26:57;-0.60;99.90
17571;DHT22;8903;52.220;20.978;2023-03-05T13:29:25;-0.50;99.90
17571;DHT22;8903;52.220;20.978;2023-03-05T13:31:54;-0.50;99.90
17571;DHT22;8903;52.220;20.978;2023-03-05T13:34:24;-0.60;99.90
17571;DHT22;8903;52.220;20.978;2023-03-05T13:36:56;-0.60;99.90
17571;DHT22;8903;52.220;20.978;2023-03-05T13:39:27;-0.60;99.90
17571;DHT22;8903;52.220;20.978;2023-03-05T13:41:57;-0.60;99.90
17571;DHT22;8903;52.220;20.978;2023-03-05T13:44:24;-0.60;99.90
17571;DHT22;8903;52.220;20.978;2023-03-05T13:46:51;-0.60;99.90
17571;DHT22;8903;52.220;20.978;2023-03-05T13:49:23;-0.60;99.90
17571;DHT22;8903;52.220;20.978;2023-03-05T13:51:52;-0.60;99.90
17571;DHT22;8903;52.220;20.978;2023-03-05T13:54:20;-0.60;99.90
17571;DHT22;8903;52.220;20.978;2023-03-05T13:56:50;-0.60;99.90
17571;DHT22;8903;52.220;20.978;2023-03-05T13:59:19;-0.70;99.90
17571;DHT22;8903;52.220;20.978;2023-03-05T14:01:47;-0.60;99.90
17571;DHT22;8903;52.220;20.978;2023-03-05T14:04:20;-0.60;99.90
17571;DHT22;8903;52.220;20.978;2023-03-05T14:06:52;-0.60;99.90
17571;DHT22;8903;52.220;20.978;2023-03-05T14:09:22;-0.50;99.90
17571;DHT22;8903;52.220;20.978;2023-03-05T14:11:54;-0.50;99.90
17571;DHT22;8903;52.220;20.978;2023-03-05T14:14:22;-0.40;99.90
17571;DHT22;8903;52.220;20.978;2023-03-05T14:16:50;-0.40;99.90
17571;DHT22;8903;52.220;20.978;2023-03-05T14:19:35;-0.30;99.90
17571;DHT22;8903;52.220;20.978;2023-03-05T14:22:05;-0.30;99.90
17571;DHT22;8903;52.220;20.978;2023-03-05T14:24:32;-0.20;99.90
17571;DHT22;8903;52.220;20.978;2023-03-05T14:27:00;-0.20;99.90
17571;DHT22;8903;52.220;20.978;2023-03-05T14:29:30;-0.10;99.90
17571;DHT22;8903;52.220;20.978;2023-03-05T14:32:00;-0.10;99.90
17571;DHT22;8903;52.220;20.978;2023-03-05T14:34:30;-0.10;99.90
17571;DHT22;8903;52.220;20.978;2023-03-05T14:37:00;-0.20;99.90
17571;DHT22;8903;52.220;20.978;2023-03-05T14:39:35;-0.20;99.90
17571;DHT22;8903;52.220;20.978;2023-03-05T14:42:29;-0.20;99.90
17571;DHT22;8903;52.220;20.978;2023-03-05T14:44:59;-0.20;99.90
17571;DHT22;8903;52.220;20.978;2023-03-05T14:47:27;-0.20;99.90
17571;DHT22;8903;52.220;20.978;2023-03-05T14:49:54;-0.10;99.90
17571;DHT22;8903;52.220;20.978;2023-03-05T14:52:23;-0.20;99.90
17571;DHT22;8903;52.220;20.978;2023-03-05T14:54:53;-0.20;99.90
17571;DHT22;8903;52.220;20.978;2023-03-05T14:57:22;-0.20;99.90
17571;DHT22;8903;52.220;20.978;2023-03-05T14:59:49;-0.20;99.90
17571;DHT22;8903;52.220;20.978;2023-03-05T15:02:17;-0.10;99.90
17571;DHT22;8903;52.220;20.978;2023-03-05T15:04:44;-0.10;99.90
17571;DHT22;8903;52.220;20.978;2023-03-05T15:07:17;0.00;99.90
17571;DHT22;8903;52.220;20.978;2023-03-05T15:09:45;0.00;99.90
17571;DHT22;8903;52.220;20.978;2023-03-05T15:12:14;0.00;99.90
17571;DHT22;8903;52.220;20.978;2023-03-05T15:14:42;-0.10;99.90
17571;DHT22;8903;52.220;20.978;2023-03-05T15:17:14;-0.10;99.90
17571;DHT22;8903;52.220;20.978;2023-03-05T15:19:42;0.00;99.90
17571;DHT22;8903;52.220;20.978;2023-03-05T15:22:10;0.00;99.90
17571;DHT22;8903;52.220;20.978;2023-03-05T15:24:37;-0.10;99.90
17571;DHT22;8903;52.220;20.978;2023-03-05T15:27:05;-0.10;99.90
17571;DHT22;8903;52.220;20.978;2023-03-05T15:29:34;-0.10;99.90
17571;DHT22;8903;52.220;20.978;2023-03-05T15:32:01;-0.20;99.90
17571;DHT22;8903;52.220;20.978;2023-03-05T15:34:29;-0.20;99.90
17571;DHT22;8903;52.220;20.978;2023-03-05T15:36:58;-0.20;99.90
17571;DHT22;8903;52.220;20.978;2023-03-05T15:39:25;-0.30;99.90
17571;DHT22;8903;52.220;20.978;2023-03-05T15:41:53;-0.40;99.90
17571;DHT22;8903;52.220;20.978;2023-03-05T15:44:20;-0.40;99.90
17571;DHT22;8903;52.220;20.978;2023-03-05T15:46:49;-0.40;99.90
17571;DHT22;8903;52.220;20.978;2023-03-05T15:49:17;-0.50;99.90
17571;DHT22;8903;52.220;20.978;2023-03-05T15:51:44;-0.50;99.90
17571;DHT22;8903;52.220;20.978;2023-03-05T15:54:11;-0.50;99.90
17571;DHT22;8903;52.220;20.978;2023-03-05T15:56:39;-0.40;99.90
17571;DHT22;8903;52.220;20.978;2023-03-05T15:59:06;-0.50;99.90
17571;DHT22;8903;52.220;20.978;2023-03-05T16:01:35;-0.50;99.90
17571;DHT22;8903;52.220;20.978;2023-03-05T16:04:04;-0.50;99.90